Tiempo atmosférico en la estación meteorológica de Doña Mencia, Córdoba (650 m.)



Fecha
DESCASC
Temp. máxima en grados centígrados (hora)
DESCASC
Temp. mínima en grados centígrados (hora)
DESCASC
Temp. media en grados centígrados
DESCASC
Racha de viento máxima en m/sg (hora)
DESCASC
Velocidad máxima media en intervalos de 10 minutos(hora)
DESCASC
Precipitaciones diarias en mm
DESCASC
Precipitaciones de 00:00 a 06:00 en mm
DESCASC
Precipitaciones de 06:00 a 12:00 en mm
DESCASC
Precipitaciones de 12:00 a 18:00 en mm
DESCASC
Precipitaciones de 18:00 a 24:00 en mm
DESCASC
18-10-2018 16.6 (01:40) 10.2 (13:10) 13.4 11.94 (13:20) 6.39 (12:40) 15 0.6 7.8 5.3 1.3
17-10-2018 24.2 (17:10) 13.4 (07:50) 18.8 6.39 (23:50) 4.17 (23:59) 0 0 0 0 0
16-10-2018 20.7 (18:10) 12.7 (08:50) 16.7 6.39 (00:10) 3.33 (00:10) 3 2.8 0.2 0 0
15-10-2018 17.9 (15:40) 9.3 (07:50) 13.6 8.06 (15:40) 5.56 (13:40) 8.9 0 0 0 8.9
14-10-2018 24.3 (00:10) 11.8 (00:00) 18 13.89 (09:50) 8.33 (09:30) 7.5 0 7.5 0 0
13-10-2018 30.4 (17:20) 19.2 (00:00) 24.8 8.61 (23:00) 5.28 (23:20) 0 0 0 0 0
12-10-2018 27.7 (16:10) 16.6 (00:00) 22.2 6.11 (13:20) 3.89 (23:59) 0 0 0 0 0
11-10-2018 23.9 (13:50) 17.4 (03:10) 20.6 10 (09:40) 5.56 (14:00) 0 0 0 0 0
10-10-2018 24.3 (17:10) 14.5 (00:00) 19.4 7.22 (16:50) 4.44 (12:10) 0 0 0 0 0
09-10-2018 24.3 (16:00) 15.7 (06:20) 20 8.33 (21:40) 4.72 (22:50) 1.6 0 0 0.2 1.4
08-10-2018 24.7 (16:30) 14.7 (08:10) 19.7 8.61 (15:20) 5 (16:00) 0 0 0 0 0
07-10-2018 27.1 (16:00) 18.3 (08:20) 22.7 10 (21:40) 5.83 (16:30) 0 0 0 0 0
06-10-2018 29.1 (16:30) 17.5 (07:30) 23.3 7.78 (16:20) 4.44 (18:00) 0 0 0 0 0
05-10-2018 29 (16:40) 17.9 (08:10) 23.4 6.94 (19:10) 3.89 (18:40) 0 0 0 0 0
04-10-2018 29 (17:10) 18.4 (00:00) 23.7 6.67 (19:20) 4.44 (19:00) 0 0 0 0 0
03-10-2018 28.4 (17:10) 16 (00:00) 22.2 6.11 (15:00) 3.61 (16:40) 0 0 0 0 0
02-10-2018 30.4 (17:30) 18.6 (00:00) 24.5 6.94 (04:30) 5 (04:30) 0 0 0 0 0
01-10-2018 29.6 (17:20) 19 (00:00) 24.3 6.94 (22:40) 3.33 (05:30) 0 0 0 0 0
30-09-2018 29.4 (18:00) 19.4 (00:00) 24.4 5.83 (15:50) 3.33 (15:50) 0 0 0 0 0
29-09-2018 28.8 (17:10) 17.1 (00:00) 22.9 6.11 (16:50) 3.33 (07:00) 0 0 0 0 0
28-09-2018 28.8 (17:10) 17.4 (00:00) 23.1 6.11 (17:00) 4.72 (08:20) 0 0 0 0 0
27-09-2018 30.5 (17:10) 18.8 (00:00) 24.6 10.28 (00:40) 5.56 (00:40) 0 0 0 0 0
26-09-2018 30.9 (15:30) 20.6 (00:00) 25.8 6.39 (12:10) 3.89 (03:30) 0 0 0 0 0
25-09-2018 32.8 (16:20) 22.2 (00:00) 27.5 7.22 (18:10) 4.72 (08:10) 0 0 0 0 0
24-09-2018 35.8 (16:30) 22.4 (00:00) 29.1 5.83 (10:40) 4.17 (10:20) 0 0 0 0 0
23-09-2018 35.3 (18:20) 22.1 (07:50) 28.7 7.22 (14:50) 4.72 (06:40) 0 0 0 0 0
22-09-2018 35.2 (17:20) 23.1 (08:20) 29.2 8.06 (14:40) 3.33 (19:30) 0 0 0 0 0
21-09-2018 33.2 (16:40) 19.9 (07:00) 26.6 6.67 (00:50) 3.06 (17:30) 0 0 0 0 0
20-09-2018 31.2 (17:10) 20.4 (07:50) 25.8 7.22 (18:20) 4.17 (18:30) 0 0 0 0 0

Gráficas

Temp. máximas Temp. mínimas Temp. medias Precipitaciones Rachas de viento máximas Velocidades máximas media en intervalos de 10 minutos

Datos horarios

Fecha y hora oficial Temperatura (ºC) Velocidad del viento (km/h) Dirección del viento Racha (km/h) Dirección de racha Precipitación (mm) Presión (hPa) Tendencia (hPa) Humedad (%)
2018-10-19 23:00:00 13.6 6 Este 9 Sudeste 0 -- -- 68
2018-10-19 22:00:00 14.9 2 Nordeste 6 Nordeste 0 -- -- 62
2018-10-19 21:00:00 14.5 2 Norte 3 Nordeste 0 -- -- 70
2018-10-19 20:00:00 15.3 0 Calma 11 Noroeste 0 -- -- 65
2018-10-19 19:00:00 17.1 8 Noroeste 12 Noroeste 0 -- -- 57
2018-10-19 18:00:00 16.3 5 Noroeste 10 Noroeste 0 -- -- 57
2018-10-19 17:00:00 17.1 6 Oeste 18 Oeste 0 -- -- 53
2018-10-19 16:00:00 17.8 5 Norte 19 Norte 0 -- -- 49
2018-10-19 15:00:00 18.9 4 Nordeste 19 Sudeste 0 -- -- 40
2018-10-19 14:00:00 19.5 5 Sudeste 22 Sudeste 0 -- -- 36
2018-10-19 13:00:00 18.2 6 Sur 22 Este 0 -- -- 37
2018-10-19 12:00:00 17 12 Sudeste 23 Este 0 -- -- 45
2018-10-19 11:00:00 15.2 15 Este 28 Este 0 -- -- 53
2018-10-19 10:00:00 12.3 17 Este 21 Este 0 -- -- 63
2018-10-19 09:00:00 11.1 8 Este 18 Este 0 -- -- 68
2018-10-19 08:00:00 10.7 12 Este 17 Este 0 -- -- 68
2018-10-19 07:00:00 10.4 10 Este 12 Este 0 -- -- 68
2018-10-19 06:00:00 9.9 8 Este 10 Este 0 -- -- 69
2018-10-19 05:00:00 11 2 Este 10 Nordeste 0 -- -- 64
2018-10-19 04:00:00 10.2 6 Nordeste 9 Nordeste 0 -- -- 73
2018-10-19 03:00:00 10.4 0 Calma 6 Nordeste 0 -- -- 72
2018-10-19 02:00:00 10.5 4 Nordeste 8 Nordeste 0 -- -- 84
2018-10-19 01:00:00 10.5 0 Calma 8 Sudoeste 0 -- -- 88
2018-10-19 00:00:00 11 8 Nordeste 13 Nordeste 0 -- -- 87
2018-10-18 23:00:00 11.2 10 Nordeste 16 Nordeste 0 -- -- 84
2018-10-18 22:00:00 11.4 0 Calma 15 Sudeste 0 -- -- 81
2018-10-18 21:00:00 11 10 Este 17 Este 0 -- -- 88
2018-10-18 20:00:00 11.3 8 Este 15 Sudeste 0.3 -- -- 88
2018-10-18 19:00:00 11.8 0 Calma 11 Este 1 -- -- 88
2018-10-18 18:00:00 12.1 0 Calma 9 Sudoeste 1.3 -- -- 88
2018-10-18 17:00:00 12 0 Calma 9 Oeste 0.3 -- -- 86
2018-10-18 16:00:00 12.1 2 Sudoeste 22 Este 0 -- -- 79
2018-10-18 15:00:00 11.9 16 Este 33 Sur 0.2 -- -- 78
2018-10-18 14:00:00 11.4 14 Sudoeste 43 Sudoeste 1.5 -- -- 71
2018-10-18 13:00:00 10.5 20 Oeste 36 Oeste 2 -- -- 93
2018-10-18 12:00:00 13.1 10 Noroeste 32 Este 3.1 -- -- 85
2018-10-18 11:00:00 13.6 4 Este 19 Este 4.5 -- -- 89
2018-10-18 10:00:00 14.3 0 Calma 22 Noroeste 0 -- -- 82
2018-10-18 09:00:00 14.3 14 Sudeste 27 Sudeste 0 -- -- 82
2018-10-18 08:00:00 13.9 13 Sudeste 21 Sudeste 0 -- -- 87
2018-10-18 07:00:00 14.2 8 Sudeste 14 Sudeste 0.2 -- -- 85
2018-10-18 06:00:00 14.5 12 Este 14 Este 0.6 -- -- 80
2018-10-18 05:00:00 14.8 3 Nordeste 11 Sudeste 0 -- -- 74
2018-10-18 04:00:00 15.6 7 Este 12 Este 0 -- -- 67
2018-10-18 03:00:00 16.2 0 Calma 14 Noroeste 0 -- -- 59
2018-10-18 02:00:00 16.3 8 Noroeste 14 Noroeste 0 -- -- 65
2018-10-18 01:00:00 16.1 5 Norte 23 Oeste 0 -- -- 66
2018-10-18 00:00:00 16.2 15 Oeste 23 Oeste 0 -- -- 67
2018-10-17 23:00:00 17.1 8 Oeste 19 Oeste 0 -- -- 50
2018-10-17 22:00:00 17.7 0 Calma 8 Oeste 0 -- -- 46
2018-10-17 21:00:00 17.9 3 Noroeste 8 Oeste 0 -- -- 46
2018-10-17 20:00:00 19.2 0 Calma 11 Oeste 0 -- -- 41
2018-10-17 19:00:00 21.8 6 Noroeste 14 Oeste 0 -- -- 33
2018-10-17 18:00:00 22.7 9 Noroeste 15 Noroeste 0 -- -- 33
2018-10-17 17:00:00 23.7 3 Norte 12 Noroeste 0 -- -- 31
2018-10-17 16:00:00 23.4 3 Nordeste 14 Noroeste 0 -- -- 31
2018-10-17 15:00:00 23.2 0 Calma 13 Nordeste 0 -- -- 35
2018-10-17 14:00:00 22.7 0 Calma 16 Este 0 -- -- 35
2018-10-17 13:00:00 21.6 5 Sudeste 23 Sur 0 -- -- 43
2018-10-17 12:00:00 20.6 5 Este 15 Este 0 -- -- 50
2018-10-17 11:00:00 19.2 5 Este 9 Este 0 -- -- 57
2018-10-17 10:00:00 16.7 8 Este 11 Este 0 -- -- 71
2018-10-17 09:00:00 13.9 7 Este 14 Este 0 -- -- 76
2018-10-17 08:00:00 14 11 Este 12 Este 0 -- -- 74
2018-10-17 07:00:00 14 3 Este 10 Este 0 -- -- 71
2018-10-17 06:00:00 14.3 9 Este 10 Este 0 -- -- 68
2018-10-17 05:00:00 14.9 0 Calma 5 Nordeste 0 -- -- 65
2018-10-17 04:00:00 15.3 0 Calma 4 Nordeste 0 -- -- 63
2018-10-17 03:00:00 15.3 2 Norte 4 Nordeste 0 -- -- 63
2018-10-17 02:00:00 15.4 2 Norte 6 Norte 0 -- -- 62
2018-10-17 01:00:00 15.9 3 Noroeste 7 Este 0 -- -- 60
2018-10-17 00:00:00 15.5 7 Este 9 Sudeste 0 -- -- 62
2018-10-16 23:00:00 15.7 6 Sudeste 12 Sudeste 0 -- -- 62
2018-10-16 22:00:00 16 7 Sudeste 10 Sudeste 0 -- -- 64
2018-10-16 21:00:00 15.6 5 Sudeste 7 Sudeste 0 -- -- 64
2018-10-16 20:00:00 16.5 4 Nordeste 5 Norte 0 -- -- 54
2018-10-16 19:00:00 20.2 2 Nordeste 10 Nordeste 0 -- -- 44
2018-10-16 18:00:00 20.6 5 Nordeste 14 Nordeste 0 -- -- 46
2018-10-16 17:00:00 19.8 6 Nordeste 17 Norte 0 -- -- 50
2018-10-16 16:00:00 18 8 Nordeste 16 Nordeste 0 -- -- 55
2018-10-16 15:00:00 18.7 4 Norte 16 Este 0 -- -- 53
2018-10-16 14:00:00 18.5 7 Este 15 Sudeste 0 -- -- 55
2018-10-16 13:00:00 16 4 Sudeste 13 Sudeste 0 -- -- 72
2018-10-16 12:00:00 15.5 3 Sudeste 12 Sudeste 0 -- -- 83
2018-10-16 11:00:00 13.5 3 Nordeste 9 Este 0 -- -- 92
2018-10-16 10:00:00 13.2 0 Calma 8 Sudeste 0 -- -- 92
2018-10-16 09:00:00 12.8 3 Sudeste 6 Este 0.1 -- -- 92
2018-10-16 08:00:00 13 0 Calma 6 Nordeste 0 -- -- 92
2018-10-16 07:00:00 13.1 3 Noroeste 5 Noroeste 0.1 -- -- 92
2018-10-16 06:00:00 13.1 4 Noroeste 6 Norte 0 -- -- 92
2018-10-16 05:00:00 13.1 5 Noroeste 8 Noroeste 0.1 -- -- 92
2018-10-16 04:00:00 13.2 4 Noroeste 8 Noroeste 0.8 -- -- 91
2018-10-16 03:00:00 13 6 Noroeste 10 Noroeste 1.1 -- -- 91
2018-10-16 02:00:00 13.7 0 Calma 12 Noroeste 0.8 -- -- 88
2018-10-16 01:00:00 14.3 6 Noroeste 23 Sudoeste 0 -- -- 78
2018-10-16 00:00:00 14.6 15 Sudoeste 28 Sudoeste 0.2 -- -- 75
2018-10-15 23:00:00 14.3 4 Sudoeste 22 Sur 0.3 -- -- 77
2018-10-15 22:00:00 14.2 12 Sur 22 Sudeste 0.3 -- -- 81
2018-10-15 21:00:00 12.8 9 Este 19 Este 3.6 -- -- 86
2018-10-15 20:00:00 13.6 6 Este 14 Sudeste 1.7 -- -- 82
2018-10-15 19:00:00 14.1 6 Sudeste 11 Noroeste 2.8 -- -- 78
2018-10-15 18:00:00 15.7 8 Oeste 19 Oeste 0 -- -- 49
2018-10-15 17:00:00 16.3 6 Noroeste 20 Sudoeste 0 -- -- 49
2018-10-15 16:00:00 15.6 10 Oeste 29 Oeste 0 -- -- 45
2018-10-15 15:00:00 15.5 15 Oeste 25 Noroeste 0 -- -- 46
2018-10-15 14:00:00 14.5 13 Oeste 27 Oeste 0 -- -- 45
2018-10-15 13:00:00 13.9 15 Oeste 26 Oeste 0 -- -- 43
2018-10-15 12:00:00 12.9 15 Noroeste 23 Noroeste 0 -- -- 58
2018-10-15 11:00:00 10.6 14 Noroeste 21 Noroeste 0 -- -- 77
2018-10-15 10:00:00 10.1 12 Oeste 17 Oeste 0 -- -- 79
2018-10-15 09:00:00 9.6 7 Noroeste 14 Noroeste 0 -- -- 79
2018-10-15 08:00:00 9.4 4 Norte 11 Noroeste 0 -- -- 78
2018-10-15 07:00:00 9.6 6 Noroeste 10 Norte 0 -- -- 74
2018-10-15 06:00:00 10 6 Noroeste 11 Noroeste 0 -- -- 73
2018-10-15 05:00:00 10.3 5 Noroeste 10 Oeste 0 -- -- 71
2018-10-15 04:00:00 10.6 7 Noroeste 12 Noroeste 0 -- -- 72
2018-10-15 03:00:00 10.8 5 Noroeste 14 Noroeste 0 -- -- 69
2018-10-15 02:00:00 11.4 7 Noroeste 15 Noroeste 0 -- -- 65
2018-10-15 01:00:00 11.5 4 Oeste 11 Noroeste 0 -- -- 62
2018-10-15 00:00:00 11.8 0 Calma 8 Sudoeste 0 -- -- 59
2018-10-14 23:00:00 12.2 2 Noroeste 14 Noroeste 0 -- -- 55
2018-10-14 22:00:00 12.9 8 Noroeste 24 Noroeste 0 -- -- 51
2018-10-14 21:00:00 13.2 6 Noroeste 14 Noroeste 0 -- -- 50
2018-10-14 20:00:00 13.6 8 Oeste 18 Oeste 0 -- -- 49
2018-10-14 19:00:00 14.8 12 Noroeste 29 Oeste 0 -- -- 40
2018-10-14 18:00:00 16.5 15 Noroeste 28 Noroeste 0 -- -- 36
2018-10-14 17:00:00 15.5 15 Noroeste 32 Oeste 0 -- -- 44
2018-10-14 16:00:00 14.8 19 Noroeste 33 Noroeste 0 -- -- 47
2018-10-14 15:00:00 15.2 21 Noroeste 33 Noroeste 0 -- -- 54
2018-10-14 14:00:00 13.9 17 Noroeste 32 Noroeste 0 -- -- 76
2018-10-14 13:00:00 13.3 17 Oeste 36 Oeste 0 -- -- 93
2018-10-14 12:00:00 13.8 20 Oeste 36 Oeste 0.1 -- -- 93
2018-10-14 11:00:00 14.5 23 Oeste 50 Noroeste 0.7 -- -- 93
2018-10-14 10:00:00 15.2 28 Oeste 50 Oeste 1.2 -- -- 80
2018-10-14 09:00:00 15.6 22 Oeste 42 Oeste 5.3 -- -- 92
2018-10-14 08:00:00 18.5 21 Sudoeste 47 Sudoeste 0.2 -- -- 70
2018-10-14 07:00:00 20.4 22 Sudoeste 43 Sudoeste 0 -- -- 47
2018-10-14 06:00:00 21.5 20 Sudoeste 40 Sudoeste 0 -- -- 41
2018-10-14 05:00:00 22.2 16 Sudoeste 36 Sudoeste 0 -- -- 38
2018-10-14 04:00:00 21.7 14 Oeste 35 Sudoeste 0 -- -- 38
2018-10-14 03:00:00 24.2 24 Sur 40 Sur 0 -- -- 34
2018-10-14 02:00:00 20.3 3 Noroeste 16 Oeste 0 -- -- 40
2018-10-14 01:00:00 23.3 9 Oeste 34 Sur 0 -- -- 34
2018-10-14 00:00:00 24.1 13 Sudoeste 30 Sur 0 -- -- 34
2018-10-13 23:00:00 24.1 12 Sur 31 Sur 0 -- -- 35
2018-10-13 22:00:00 23.5 15 Sudoeste 29 Sudoeste 0 -- -- 38
2018-10-13 21:00:00 23.9 13 Sudoeste 26 Sudoeste 0 -- -- 40
2018-10-13 20:00:00 24.2 12 Oeste 28 Oeste 0 -- -- 41
2018-10-13 19:00:00 27.6 12 Oeste 24 Oeste 0 -- -- 31
2018-10-13 18:00:00 28.7 16 Oeste 25 Oeste 0 -- -- 27
2018-10-13 17:00:00 29.3 14 Oeste 23 Oeste 0 -- -- 25
2018-10-13 16:00:00 28.5 16 Oeste 27 Oeste 0 -- -- 30
2018-10-13 15:00:00 29 4 Sudoeste 14 Noroeste 0 -- -- 33
2018-10-13 14:00:00 27 7 Oeste 14 Oeste 0 -- -- 40
2018-10-13 13:00:00 25.4 7 Noroeste 13 Oeste 0 -- -- 44
2018-10-13 12:00:00 24.4 4 Oeste 9 Oeste 0 -- -- 48
2018-10-13 11:00:00 22.6 4 Oeste 7 Noroeste 0 -- -- 52
2018-10-13 10:00:00 21.3 0 Calma 6 Sudeste 0 -- -- 56
2018-10-13 09:00:00 19.3 2 Este 5 Sudeste 0 -- -- 60
2018-10-13 08:00:00 19.6 2 Norte 6 Norte 0 -- -- 57
2018-10-13 07:00:00 19.8 3 Norte 5 Noroeste 0 -- -- 57
2018-10-13 06:00:00 20.7 3 Nordeste 15 Sudeste 0 -- -- 54
2018-10-13 05:00:00 21.1 7 Este 15 Sudeste 0 -- -- 55
2018-10-13 04:00:00 20.2 14 Sudeste 17 Este 0 -- -- 57
2018-10-13 03:00:00 -- 8 Este 12 Este 0 -- -- --
2018-10-13 02:00:00 20.7 3 Norte 7 Este 0 -- -- 55
2018-10-13 01:00:00 20.6 0 Calma 17 Este 0 -- -- 54
2018-10-13 00:00:00 21 14 Este 17 Sudeste 0 -- -- 55
2018-10-12 23:00:00 21.2 9 Este 13 Este 0 -- -- 54
2018-10-12 22:00:00 21.4 10 Sudeste 11 Sudeste 0 -- -- 53
2018-10-12 21:00:00 21.8 5 Nordeste 6 Norte 0 -- -- 49
2018-10-12 20:00:00 23 4 Norte 12 Noroeste 0 -- -- 44
2018-10-12 19:00:00 25.3 8 Noroeste 17 Noroeste 0 -- -- 40
2018-10-12 18:00:00 26.8 8 Noroeste 14 Noroeste 0 -- -- 38
2018-10-12 17:00:00 26.6 10 Noroeste 17 Noroeste 0 -- -- 37
2018-10-12 16:00:00 27.1 5 Sudoeste 16 Oeste 0 -- -- 39
2018-10-12 15:00:00 25.9 6 Oeste 21 Noroeste 0 -- -- 42
2018-10-12 14:00:00 25 12 Noroeste 22 Sudeste 0 -- -- 43
2018-10-12 13:00:00 25.4 4 Nordeste 19 Noroeste 0 -- -- 45
2018-10-12 12:00:00 23.1 4 Noroeste 12 Noroeste 0 -- -- 51
2018-10-12 11:00:00 22.7 4 Este 16 Sudeste 0 -- -- 52
2018-10-12 10:00:00 20.8 9 Este 13 Sudeste 0 -- -- 62
2018-10-12 09:00:00 18.2 2 Este 12 Este 0 -- -- 70
2018-10-12 08:00:00 17.1 7 Nordeste 10 Este 0 -- -- 72
2018-10-12 07:00:00 17.3 8 Este 12 Este 0 -- -- 74
2018-10-12 06:00:00 17.1 9 Este 12 Nordeste 0 -- -- 74
2018-10-12 05:00:00 17.7 6 Este 11 Este 0 -- -- 72
2018-10-12 04:00:00 17.8 3 Este 6 Este 0 -- -- 72
2018-10-12 03:00:00 17.9 0 Calma 10 Noroeste 0 -- -- 72
2018-10-12 02:00:00 17.4 4 Noroeste 9 Oeste 0 -- -- 77
2018-10-12 01:00:00 17.6 5 Oeste 12 Oeste 0 -- -- 78
2018-10-12 00:00:00 17.8 5 Oeste 13 Noroeste 0 -- -- 76
2018-10-11 23:00:00 18.1 4 Oeste 15 Oeste 0 -- -- 71
2018-10-11 22:00:00 18.4 6 Oeste 12 Oeste 0 -- -- 70
2018-10-11 21:00:00 18.5 7 Oeste 13 Oeste 0 -- -- 69
2018-10-11 20:00:00 19.4 6 Oeste 19 Noroeste 0 -- -- 65
2018-10-11 19:00:00 20 13 Oeste 22 Oeste 0 -- -- 64
2018-10-11 18:00:00 20.3 11 Oeste 19 Oeste 0 -- -- 72
2018-10-11 17:00:00 19.1 9 Oeste 22 Oeste 0 -- -- 78
2018-10-11 16:00:00 17.7 17 Oeste 33 Noroeste 0 -- -- 89
2018-10-11 15:00:00 19.3 12 Oeste 26 Oeste 0 -- -- 78
2018-10-11 14:00:00 21.5 20 Oeste 31 Sudoeste 0 -- -- 59
2018-10-11 13:00:00 21 7 Oeste 20 Oeste 0 -- -- 62
2018-10-11 12:00:00 19.1 8 Noroeste 27 Sudoeste 0 -- -- 67
2018-10-11 11:00:00 18.7 6 Noroeste 30 Sudoeste 0 -- -- 67
2018-10-11 10:00:00 20.3 18 Sudoeste 36 Sudoeste 0 -- -- 55
2018-10-11 09:00:00 20.1 14 Sur 27 Sur 0 -- -- 59
2018-10-11 08:00:00 18.7 2 Este 25 Sudoeste 0 -- -- 65
2018-10-11 07:00:00 19.6 13 Sudoeste 23 Sudoeste 0 -- -- 61
2018-10-11 06:00:00 19 7 Sudoeste 23 Sur 0 -- -- 64
2018-10-11 05:00:00 18.6 9 Sudoeste 18 Sur 0 -- -- 66
2018-10-11 04:00:00 18.2 3 Norte 10 Sudoeste 0 -- -- 68
2018-10-11 03:00:00 17.7 3 Este 9 Este 0 -- -- 69
2018-10-11 02:00:00 18.8 2 Este 7 Sudeste 0 -- -- 65
2018-10-11 01:00:00 18.6 2 Este 13 Sudeste 0 -- -- 66
2018-10-11 00:00:00 18 9 Este 11 Este 0 -- -- 67
2018-10-10 23:00:00 17.9 4 Noroeste 20 Sudoeste 0 -- -- 69
2018-10-10 22:00:00 19.5 10 Sudoeste 19 Sudoeste 0 -- -- 59
2018-10-10 21:00:00 19.2 5 Oeste 14 Sudoeste 0 -- -- 62
2018-10-10 20:00:00 20 4 Noroeste 12 Oeste 0 -- -- 59
2018-10-10 19:00:00 21.1 8 Oeste 21 Noroeste 0 -- -- 51
2018-10-10 18:00:00 22.9 9 Oeste 22 Oeste 0 -- -- 48
2018-10-10 17:00:00 23.6 12 Oeste 26 Oeste 0 -- -- 46
2018-10-10 16:00:00 21.8 10 Oeste 22 Oeste 0 -- -- 51
2018-10-10 15:00:00 21.8 9 Oeste 20 Noroeste 0 -- -- 53
2018-10-10 14:00:00 21 12 Oeste 24 Oeste 0 -- -- 52
2018-10-10 13:00:00 20.3 14 Oeste 25 Oeste 0 -- -- 55
2018-10-10 12:00:00 19.9 15 Oeste 24 Oeste 0 -- -- 58
2018-10-10 11:00:00 18.9 2 Norte 9 Noroeste 0 -- -- 67
2018-10-10 10:00:00 18 5 Este 11 Este 0 -- -- 78
2018-10-10 09:00:00 15.2 0 Calma 6 Noroeste 0 -- -- 88
2018-10-10 08:00:00 14.7 6 Nordeste 13 Este 0 -- -- 88
2018-10-10 07:00:00 14.8 6 Este 8 Este 0 -- -- 88
2018-10-10 06:00:00 15.1 0 Calma 8 Este 0 -- -- 88
2018-10-10 05:00:00 14.8 2 Sudeste 5 Este 0 -- -- 87
2018-10-10 04:00:00 15.6 2 Este 6 Este 0 -- -- 82
2018-10-10 03:00:00 16 3 Oeste 11 Noroeste 0 -- -- 82
2018-10-10 02:00:00 15.9 3 Norte 13 Norte 0 -- -- 84
2018-10-10 01:00:00 16.5 8 Noroeste 17 Noroeste 0 -- -- 83
2018-10-10 00:00:00 17.6 9 Sudoeste 26 Sudoeste 1.4 -- -- 75
2018-10-09 23:00:00 18.6 16 Sudoeste 29 Sudoeste 0 -- -- 64
2018-10-09 22:00:00 18.6 15 Sudoeste 30 Sur 0 -- -- 62
2018-10-09 21:00:00 19.2 11 Sudoeste 24 Oeste 0 -- -- 59
2018-10-09 20:00:00 19.5 12 Sudoeste 26 Sudoeste 0 -- -- 57
2018-10-09 19:00:00 22 8 Oeste 19 Oeste 0 -- -- 53
2018-10-09 18:00:00 20.3 8 Oeste 26 Oeste 0 -- -- 56
2018-10-09 17:00:00 21.3 8 Sudoeste 25 Sudoeste 0 -- -- 49
2018-10-09 16:00:00 23.9 10 Oeste 18 Oeste 0 -- -- 50
2018-10-09 15:00:00 21.8 4 Oeste 21 Oeste 0.2 -- -- 57
2018-10-09 14:00:00 21.1 10 Oeste 26 Oeste 0 -- -- 54
2018-10-09 13:00:00 22.6 10 Oeste 23 Oeste 0 -- -- 53
2018-10-09 12:00:00 20.8 9 Oeste 19 Noroeste 0 -- -- 59
2018-10-09 11:00:00 19.1 6 Oeste 11 Noroeste 0 -- -- 62
2018-10-09 10:00:00 17.9 3 Noroeste 6 Noroeste 0 -- -- 64
2018-10-09 09:00:00 16.6 3 Norte 10 Noroeste 0 -- -- 67
2018-10-09 08:00:00 16.4 2 Sudeste 9 Este 0 -- -- 64
2018-10-09 07:00:00 16.2 5 Este 12 Este 0 -- -- 55
2018-10-09 06:00:00 15.9 2 Nordeste 5 Sudeste 0 -- -- 55
2018-10-09 05:00:00 17.1 5 Norte 7 Norte 0 -- -- 53
2018-10-09 04:00:00 16.8 3 Este 4 Sudeste 0 -- -- 54
2018-10-09 03:00:00 16.9 2 Sudeste 5 Este 0 -- -- 52
2018-10-09 02:00:00 17 0 Calma 4 Este 0 -- -- 52
2018-10-09 01:00:00 17.1 0 Calma 17 Norte 0 -- -- 51
2018-10-09 00:00:00 18.5 9 Noroeste 15 Noroeste 0 -- -- 47
2018-10-08 23:00:00 19.1 4 Noroeste 10 Noroeste 0 -- -- 44
2018-10-08 22:00:00 19.9 0 Calma 5 Este 0 -- -- 43
2018-10-08 21:00:00 20.1 2 Sudeste 6 Sudeste 0 -- -- 43
2018-10-08 20:00:00 21.1 0 Calma 14 Noroeste 0 -- -- 41
2018-10-08 19:00:00 23.4 10 Noroeste 26 Noroeste 0 -- -- 37
2018-10-08 18:00:00 23.9 13 Noroeste 28 Oeste 0 -- -- 36
2018-10-08 17:00:00 24.1 16 Oeste 28 Noroeste 0 -- -- 37
2018-10-08 16:00:00 23.5 18 Oeste 31 Noroeste 0 -- -- 36
2018-10-08 15:00:00 23.3 17 Oeste 26 Oeste 0 -- -- 39
2018-10-08 14:00:00 23.3 4 Oeste 15 Noroeste 0 -- -- 44
2018-10-08 13:00:00 21.8 3 Norte 11 Oeste 0 -- -- 41
2018-10-08 12:00:00 20.1 4 Noroeste 11 Oeste 0 -- -- 47
2018-10-08 11:00:00 19.1 5 Oeste 9 Oeste 0 -- -- 52
2018-10-08 10:00:00 17.8 2 Noroeste 12 Este 0 -- -- 55
2018-10-08 09:00:00 15.3 8 Sudeste 9 Este 0 -- -- 65
2018-10-08 08:00:00 15.7 3 Nordeste 8 Este 0 -- -- 64
2018-10-08 07:00:00 15.8 4 Este 6 Este 0 -- -- 62
2018-10-08 06:00:00 16.1 3 Norte 10 Noroeste 0 -- -- 60
2018-10-08 05:00:00 17 7 Noroeste 12 Noroeste 0 -- -- 57
2018-10-08 04:00:00 17.1 4 Noroeste 12 Noroeste 0 -- -- 55
2018-10-08 03:00:00 17.5 6 Norte 12 Noroeste 0 -- -- 50
2018-10-08 02:00:00 18.1 7 Norte 16 Noroeste 0 -- -- 46
2018-10-08 01:00:00 18.7 10 Noroeste 26 Oeste 0 -- -- 43
2018-10-08 00:00:00 20.2 14 Oeste 30 Oeste 0 -- -- 39
2018-10-07 23:00:00 21.2 17 Oeste 31 Oeste 0 -- -- 38
2018-10-07 22:00:00 22.6 16 Oeste 36 Oeste 0 -- -- 37
2018-10-07 21:00:00 23 12 Oeste 24 Oeste 0 -- -- 37
2018-10-07 20:00:00 23.7 9 Oeste 32 Oeste 0 -- -- 35
2018-10-07 19:00:00 25.9 17 Oeste 30 Noroeste 0 -- -- 34
2018-10-07 18:00:00 26.7 18 Oeste 30 Oeste 0 -- -- 36
2018-10-07 17:00:00 26.4 20 Oeste 33 Oeste 0 -- -- 36
2018-10-07 16:00:00 26.5 16 Oeste 30 Oeste 0 -- -- 34
2018-10-07 15:00:00 25.8 17 Noroeste 29 Noroeste 0 -- -- 37
2018-10-07 14:00:00 25.1 14 Oeste 27 Oeste 0 -- -- 41
2018-10-07 13:00:00 24 15 Oeste 23 Oeste 0 -- -- 43
2018-10-07 12:00:00 22.8 11 Noroeste 20 Noroeste 0 -- -- 47
2018-10-07 11:00:00 21.5 8 Noroeste 16 Oeste 0 -- -- 49
2018-10-07 10:00:00 19.7 6 Noroeste 16 Noroeste 0 -- -- 52
2018-10-07 09:00:00 18.8 10 Noroeste 14 Noroeste 0 -- -- 52
2018-10-07 08:00:00 18.6 5 Norte 18 Noroeste 0 -- -- 51
2018-10-07 07:00:00 19.4 8 Noroeste 17 Noroeste 0 -- -- 48
2018-10-07 06:00:00 19.9 6 Noroeste 19 Noroeste 0 -- -- 45
2018-10-07 05:00:00 20.2 10 Noroeste 19 Oeste 0 -- -- 44
2018-10-07 04:00:00 21.6 11 Oeste 26 Oeste 0 -- -- 44
2018-10-07 03:00:00 20.8 9 Oeste 25 Oeste 0 -- -- 49
2018-10-07 02:00:00 20.9 11 Noroeste 24 Oeste 0 -- -- 50
2018-10-07 01:00:00 21.4 10 Oeste 23 Oeste 0 -- -- 46
2018-10-07 00:00:00 22.5 12 Oeste 25 Noroeste 0 -- -- 36
2018-10-06 23:00:00 23.4 12 Oeste 26 Oeste 0 -- -- 33
2018-10-06 22:00:00 23.7 11 Oeste 22 Oeste 0 -- -- 32
2018-10-06 21:00:00 23.7 7 Noroeste 13 Oeste 0 -- -- 32
2018-10-06 20:00:00 24.5 6 Noroeste 16 Noroeste 0 -- -- 31
2018-10-06 19:00:00 26.8 13 Oeste 23 Noroeste 0 -- -- 28
2018-10-06 18:00:00 28.2 16 Oeste 27 Noroeste 0 -- -- 26
2018-10-06 17:00:00 28.9 14 Oeste 28 Oeste 0 -- -- 27
2018-10-06 16:00:00 28.3 13 Oeste 25 Oeste 0 -- -- 28
2018-10-06 15:00:00 27.2 12 Oeste 23 Oeste 0 -- -- 30
2018-10-06 14:00:00 26.9 9 Noroeste 21 Noroeste 0 -- -- 31
2018-10-06 13:00:00 26.3 10 Oeste 19 Oeste 0 -- -- 31
2018-10-06 12:00:00 24.3 4 Oeste 10 Oeste 0 -- -- 37
2018-10-06 11:00:00 22.5 3 Oeste 5 Oeste 0 -- -- 38
2018-10-06 10:00:00 20.8 0 Calma 5 Norte 0 -- -- 38
2018-10-06 09:00:00 20.1 0 Calma 9 Este 0 -- -- 39
2018-10-06 08:00:00 18.3 8 Este 15 Este 0 -- -- 41
2018-10-06 07:00:00 19.2 0 Calma 6 Sur 0 -- -- 41
2018-10-06 06:00:00 18.5 0 Calma 9 Sudeste 0 -- -- 42
2018-10-06 05:00:00 19.5 4 Nordeste 8 Nordeste 0 -- -- 40
2018-10-06 04:00:00 20.5 7 Nordeste 10 Nordeste 0 -- -- 39
2018-10-06 03:00:00 20.9 2 Sudoeste 12 Sudeste 0 -- -- 39
2018-10-06 02:00:00 21.3 2 Norte 13 Sudoeste 0 -- -- 38
2018-10-06 01:00:00 21.7 3 Sur 15 Noroeste 0 -- -- 39
2018-10-06 00:00:00 19.9 6 Norte 12 Noroeste 0 -- -- 46
2018-10-05 23:00:00 21.8 2 Noroeste 13 Norte 0 -- -- 37
2018-10-05 22:00:00 20.6 9 Norte 16 Noroeste 0 -- -- 45
2018-10-05 21:00:00 22 6 Norte 14 Oeste 0 -- -- 40
2018-10-05 20:00:00 23.5 11 Noroeste 25 Oeste 0 -- -- 37
2018-10-05 19:00:00 26.9 12 Oeste 22 Oeste 0 -- -- 32
2018-10-05 18:00:00 28.5 9 Noroeste 17 Noroeste 0 -- -- 28
2018-10-05 17:00:00 28.7 10 Noroeste 19 Norte 0 -- -- 28
2018-10-05 16:00:00 28.3 6 Noroeste 20 Noroeste 0 -- -- 28
2018-10-05 15:00:00 27.4 5 Noroeste 17 Noroeste 0 -- -- 30
2018-10-05 14:00:00 26.2 8 Noroeste 18 Noroeste 0 -- -- 31
2018-10-05 13:00:00 25.8 5 Oeste 17 Oeste 0 -- -- 32
2018-10-05 12:00:00 24.7 5 Noroeste 10 Noroeste 0 -- -- 33
2018-10-05 11:00:00 23.3 3 Noroeste 5 Oeste 0 -- -- 33
2018-10-05 10:00:00 21.8 0 Calma 4 Este 0 -- -- 34
2018-10-05 09:00:00 19.6 0 Calma 8 Este 0 -- -- 36
2018-10-05 08:00:00 18.1 8 Este 12 Este 0 -- -- 37
2018-10-05 07:00:00 20.3 0 Calma 7 Este 0 -- -- 35
2018-10-05 06:00:00 19.8 3 Este 5 Noroeste 0 -- -- 35
2018-10-05 05:00:00 19.9 2 Este 6 Sudeste 0 -- -- 35
2018-10-05 04:00:00 19.5 0 Calma 14 Este 0 -- -- 36
2018-10-05 03:00:00 19.4 8 Nordeste 13 Nordeste 0 -- -- 36
2018-10-05 02:00:00 20.8 4 Norte 12 Norte 0 -- -- 35
2018-10-05 01:00:00 21.2 4 Este 10 Norte 0 -- -- 35
2018-10-05 00:00:00 20.6 8 Norte 13 Norte 0 -- -- 36
2018-10-04 23:00:00 22 5 Noroeste 13 Norte 0 -- -- 34
2018-10-04 22:00:00 21.6 8 Noroeste 18 Noroeste 0 -- -- 36
2018-10-04 21:00:00 22.5 6 Noroeste 17 Oeste 0 -- -- 35
2018-10-04 20:00:00 23.5 9 Oeste 24 Oeste 0 -- -- 33
2018-10-04 19:00:00 26.5 16 Oeste 23 Oeste 0 -- -- 29
2018-10-04 18:00:00 28.2 10 Oeste 17 Oeste 0 -- -- 28
2018-10-04 17:00:00 28.4 7 Noroeste 19 Oeste 0 -- -- 28
2018-10-04 16:00:00 28.3 6 Noroeste 18 Oeste 0 -- -- 31
2018-10-04 15:00:00 27.7 8 Noroeste 17 Noroeste 0 -- -- 33
2018-10-04 14:00:00 26.5 7 Oeste 15 Noroeste 0 -- -- 34
2018-10-04 13:00:00 25.4 5 Oeste 12 Noroeste 0 -- -- 36
2018-10-04 12:00:00 23.8 5 Oeste 11 Oeste 0 -- -- 37
2018-10-04 11:00:00 22.4 4 Oeste 6 Noroeste 0 -- -- 38
2018-10-04 10:00:00 21.4 2 Sudeste 7 Noroeste 0 -- -- 39
2018-10-04 09:00:00 19.2 0 Calma 5 Noroeste 0 -- -- 41
2018-10-04 08:00:00 18.5 9 Este 16 Este 0 -- -- 41
2018-10-04 07:00:00 19.3 0 Calma 7 Noroeste 0 -- -- 41
2018-10-04 06:00:00 19 5 Norte 9 Norte 0 -- -- 40
2018-10-04 05:00:00 19.2 5 Nordeste 10 Norte 0 -- -- 40
2018-10-04 04:00:00 19.6 8 Noroeste 12 Noroeste 0 -- -- 38
2018-10-04 03:00:00 20.1 2 Norte 14 Sudoeste 0 -- -- 40
2018-10-04 02:00:00 20.7 2 Nordeste 11 Noroeste 0 -- -- 42
2018-10-04 01:00:00 19.5 8 Norte 13 Norte 0 -- -- 46
2018-10-04 00:00:00 19.7 10 Noroeste 17 Norte 0 -- -- 49
2018-10-03 23:00:00 20.8 9 Norte 14 Norte 0 -- -- 46
2018-10-03 22:00:00 21.2 6 Noroeste 14 Norte 0 -- -- 41
2018-10-03 21:00:00 21.6 6 Noroeste 17 Oeste 0 -- -- 40
2018-10-03 20:00:00 23.2 10 Noroeste 19 Oeste 0 -- -- 37
2018-10-03 19:00:00 26.5 12 Oeste 17 Oeste 0 -- -- 33
2018-10-03 18:00:00 27.7 10 Noroeste 19 Oeste 0 -- -- 30
2018-10-03 17:00:00 28.1 10 Noroeste 20 Noroeste 0 -- -- 31
2018-10-03 16:00:00 27.9 8 Oeste 21 Oeste 0 -- -- 31
2018-10-03 15:00:00 27.6 10 Oeste 22 Oeste 0 -- -- 32
2018-10-03 14:00:00 25.7 10 Noroeste 21 Noroeste 0 -- -- 37
2018-10-03 13:00:00 25.9 2 Sudoeste -- -- -- -- -- 34
2018-10-03 12:00:00 24.5 9 Nordeste 17 Este 0 -- -- 39
2018-10-03 11:00:00 22 11 Este 19 Este 0 -- -- 46
2018-10-03 10:00:00 19.9 9 Este 16 Nordeste 0 -- -- 53
2018-10-03 09:00:00 17.3 9 Este 11 Este 0 -- -- 59
2018-10-03 08:00:00 16.8 6 Este 9 Nordeste 0 -- -- 60
2018-10-03 07:00:00 17.2 3 Este 9 Este 0 -- -- 57
2018-10-03 06:00:00 17.2 7 Nordeste 11 Este 0 -- -- 58
2018-10-03 05:00:00 17.6 5 Norte 8 Norte 0 -- -- 62
2018-10-03 04:00:00 18.8 0 Calma 13 Norte 0 -- -- 57
2018-10-03 03:00:00 19.2 2 Este 8 Noroeste 0 -- -- 50
2018-10-03 02:00:00 18.4 6 Norte 16 Noroeste 0 -- -- 50
2018-10-03 01:00:00 20 8 Noroeste 13 Norte 0 -- -- 38
2018-10-03 00:00:00 21.4 4 Este 16 Sudeste 0 -- -- 19
2018-10-02 23:00:00 22 8 Sudeste 16 Sudeste 0 -- -- 17
2018-10-02 22:00:00 22.1 10 Sudeste 12 Sudeste 0 -- -- 17
2018-10-02 21:00:00 22.8 7 Este 10 Este 0 -- -- 17
2018-10-02 20:00:00 25 3 Este 8 Norte 0 -- -- 15
2018-10-02 19:00:00 29.2 3 Nordeste 13 Este 0 -- -- 15
2018-10-02 18:00:00 29.6 3 Nordeste 14 Nordeste 0 -- -- 15
2018-10-02 17:00:00 29.4 5 Nordeste 21 Nordeste 0 -- -- 15
2018-10-02 16:00:00 28.9 6 Norte 16 Nordeste 0 -- -- 17
2018-10-02 15:00:00 28.6 6 Nordeste 15 Nordeste 0 -- -- 18
2018-10-02 14:00:00 28.3 5 Nordeste 13 Este 0 -- -- 22
2018-10-02 13:00:00 27.1 4 Este 14 Sudeste 0 -- -- 23
2018-10-02 12:00:00 25.7 4 Sudeste 14 Sudeste 0 -- -- 25
2018-10-02 11:00:00 22.8 7 Este 18 Este 0 -- -- 30
2018-10-02 10:00:00 23 9 Este 19 Este 0 -- -- 25
2018-10-02 09:00:00 19.6 13 Este 18 Este 0 -- -- 28
2018-10-02 08:00:00 19.1 10 Este 17 Este 0 -- -- 30
2018-10-02 07:00:00 19 13 Este 19 Sudeste 0 -- -- 28
2018-10-02 06:00:00 19.6 12 Sudeste 21 Sudeste 0 -- -- 28
2018-10-02 05:00:00 20.7 18 Sudeste 25 Sudeste 0 -- -- 28
2018-10-02 04:00:00 20.2 14 Sudeste 19 Sudeste 0 -- -- 30
2018-10-02 03:00:00 20.6 10 Este 13 Este 0 -- -- 31
2018-10-02 02:00:00 22 6 Este 10 Este 0 -- -- 31
2018-10-02 01:00:00 22.2 3 Este 12 Sudeste 0 -- -- 32
2018-10-02 00:00:00 23.6 3 Este 15 Nordeste 0 -- -- 32
2018-10-01 23:00:00 23.2 5 Sudeste 25 Este 0 -- -- 37
2018-10-01 22:00:00 24.7 2 Norte 4 Nordeste 0 -- -- 36
2018-10-01 21:00:00 24.9 0 Calma 5 Nordeste 0 -- -- 36
2018-10-01 20:00:00 26.1 0 Calma 9 Noroeste 0 -- -- 34
2018-10-01 19:00:00 28.4 6 Oeste 23 Nordeste 0 -- -- 31
2018-10-01 18:00:00 29 2 Noroeste 21 Noroeste 0 -- -- 32
2018-10-01 17:00:00 29.2 9 Oeste 17 Noroeste 0 -- -- 34
2018-10-01 16:00:00 28.1 9 Noroeste 19 Noroeste 0 -- -- 36
2018-10-01 15:00:00 27.1 12 Noroeste 20 Oeste 0 -- -- 40
2018-10-01 14:00:00 26.8 6 Noroeste 17 Oeste 0 -- -- 42
2018-10-01 13:00:00 25.4 8 Oeste 14 Noroeste 0 -- -- 44
2018-10-01 12:00:00 24 6 Noroeste 13 Noroeste 0 -- -- 49
2018-10-01 11:00:00 22.1 7 Noroeste 14 Noroeste 0 -- -- 55
2018-10-01 10:00:00 20.5 8 Noroeste 19 Noroeste 0 -- -- 62
2018-10-01 09:00:00 19.8 10 Noroeste 21 Noroeste 0 -- -- 65
2018-10-01 08:00:00 19.4 9 Noroeste 22 Noroeste 0 -- -- 69
2018-10-01 07:00:00 19.4 9 Noroeste 23 Noroeste 0 -- -- 71
2018-10-01 06:00:00 19.2 12 Noroeste 20 Noroeste 0 -- -- 71
2018-10-01 05:00:00 19.6 12 Noroeste 19 Noroeste 0 -- -- 63
2018-10-01 04:00:00 20.5 8 Noroeste 15 Norte 0 -- -- 55
2018-10-01 03:00:00 21 8 Noroeste 14 Noroeste 0 -- -- 51
2018-10-01 02:00:00 22.4 5 Noroeste 12 Norte 0 -- -- 48
2018-10-01 01:00:00 22.3 6 Noroeste 15 Noroeste 0 -- -- 48
2018-10-01 00:00:00 22.8 8 Noroeste 13 Noroeste 0 -- -- 47
2018-09-30 23:00:00 23.6 4 Noroeste 6 Noroeste 0 -- -- 46
2018-09-30 22:00:00 23.5 4 Noroeste 5 Noroeste 0 -- -- 46
2018-09-30 21:00:00 23.9 0 Calma 8 Oeste 0 -- -- 43
2018-09-30 20:00:00 25.1 5 Norte 14 Noroeste 0 -- -- 39
2018-09-30 19:00:00 27.7 10 Noroeste 16 Noroeste 0 -- -- 36
2018-09-30 18:00:00 29.4 3 Norte 16 Noroeste 0 -- -- 34
2018-09-30 17:00:00 29 5 Noroeste 17 Noroeste 0 -- -- 37
2018-09-30 16:00:00 28.4 8 Noroeste 21 Noroeste 0 -- -- 39
2018-09-30 15:00:00 27.5 6 Norte 18 Noroeste 0 -- -- 43
2018-09-30 14:00:00 26.6 7 Oeste 16 Oeste 0 -- -- 47
2018-09-30 13:00:00 25 5 Oeste 13 Noroeste 0 -- -- 51
2018-09-30 12:00:00 23.7 4 Oeste 15 Oeste 0 -- -- 55
2018-09-30 11:00:00 22 8 Oeste 13 Noroeste 0 -- -- 61
2018-09-30 10:00:00 20.6 5 Noroeste 8 Noroeste 0 -- -- 64
2018-09-30 09:00:00 19.5 4 Norte 7 Norte 0 -- -- 66
2018-09-30 08:00:00 19.4 3 Norte 10 Noroeste 0 -- -- 65
2018-09-30 07:00:00 20.3 5 Noroeste 11 Noroeste 0 -- -- 62
2018-09-30 06:00:00 20.6 4 Noroeste 10 Noroeste 0 -- -- 62
2018-09-30 05:00:00 20.5 5 Norte 12 Norte 0 -- -- 62
2018-09-30 04:00:00 20.1 5 Noroeste 12 Noroeste 0 -- -- 59
2018-09-30 03:00:00 21.4 9 Noroeste 14 Noroeste 0 -- -- 53
2018-09-30 02:00:00 22.3 3 Noroeste 13 Oeste 0 -- -- 51
2018-09-30 01:00:00 22.2 6 Noroeste 12 Noroeste 0 -- -- 51
2018-09-30 00:00:00 22.5 5 Noroeste 9 Norte 0 -- -- 47
2018-09-29 23:00:00 23 2 Norte 8 Norte 0 -- -- 45
2018-09-29 22:00:00 23.3 3 Sudeste 4 Este 0 -- -- 44
2018-09-29 21:00:00 23.6 3 Sudeste 9 Norte 0 -- -- 43
2018-09-29 20:00:00 25.4 5 Norte 13 Noroeste 0 -- -- 40
2018-09-29 19:00:00 27.3 8 Noroeste 16 Noroeste 0 -- -- 37
2018-09-29 18:00:00 28.1 7 Noroeste 19 Noroeste 0 -- -- 38
2018-09-29 17:00:00 28.1 9 Noroeste 22 Noroeste 0 -- -- 40
2018-09-29 16:00:00 27.9 8 Noroeste 16 Noroeste 0 -- -- 41
2018-09-29 15:00:00 26.4 7 Oeste 20 Noroeste 0 -- -- 44
2018-09-29 14:00:00 25.4 9 Noroeste 17 Oeste 0 -- -- 48
2018-09-29 13:00:00 24.7 6 Noroeste 14 Norte 0 -- -- 49
2018-09-29 12:00:00 24.4 3 Sudeste 12 Sudeste 0 -- -- 51
2018-09-29 11:00:00 21.1 2 Sudoeste 6 Noroeste 0 -- -- 66
2018-09-29 10:00:00 19.3 3 Oeste 6 Noroeste 0 -- -- 75
2018-09-29 09:00:00 17.8 0 Calma 4 Nordeste 0 -- -- 79
2018-09-29 08:00:00 17.9 0 Calma 13 Este 0 -- -- 76
2018-09-29 07:00:00 17.9 12 Este 13 Este 0 -- -- 73
2018-09-29 06:00:00 18.5 4 Norte 10 Noroeste 0 -- -- 77
2018-09-29 05:00:00 18.8 3 Noroeste 10 Este 0 -- -- 72
2018-09-29 04:00:00 19.2 8 Este 11 Norte 0 -- -- 68
2018-09-29 03:00:00 19.1 8 Norte 10 Norte 0 -- -- 72
2018-09-29 02:00:00 19.4 6 Norte 14 Noroeste 0 -- -- 70
2018-09-29 01:00:00 20 8 Norte 13 Norte 0 -- -- 66
2018-09-29 00:00:00 20.4 9 Noroeste 14 Norte 0 -- -- 63
2018-09-28 23:00:00 21.1 4 Norte 10 Norte 0 -- -- 60
2018-09-28 22:00:00 22.1 4 Noroeste 11 Noroeste 0 -- -- 54
2018-09-28 21:00:00 23 0 Calma 5 Noroeste 0 -- -- 47
2018-09-28 20:00:00 24.6 4 Noroeste 14 Noroeste 0 -- -- 43
2018-09-28 19:00:00 26.5 8 Noroeste 16 Noroeste 0 -- -- 41
2018-09-28 18:00:00 27.4 9 Noroeste 21 Noroeste 0 -- -- 39
2018-09-28 17:00:00 28.3 5 Noroeste 22 Noroeste 0 -- -- 40
2018-09-28 16:00:00 27.7 0 Calma 14 Oeste 0 -- -- 42
2018-09-28 15:00:00 24.6 3 Norte 15 Este 0 -- -- 50
2018-09-28 14:00:00 25 8 Oeste 15 Oeste 0 -- -- 51
2018-09-28 13:00:00 23.4 5 Noroeste 12 Este 0 -- -- 53
2018-09-28 12:00:00 23.7 4 Nordeste 16 Nordeste 0 -- -- 56
2018-09-28 11:00:00 22.5 9 Este 18 Sudeste 0 -- -- 62
2018-09-28 10:00:00 20.5 8 Este 17 Este 0 -- -- 68
2018-09-28 09:00:00 17.8 12 Este 21 Este 0 -- -- 76
2018-09-28 08:00:00 17.5 15 Este 20 Este 0 -- -- 75
2018-09-28 07:00:00 17.7 8 Este 13 Este 0 -- -- 74
2018-09-28 06:00:00 18.3 8 Este 10 Este 0 -- -- 70
2018-09-28 05:00:00 18.4 2 Este 10 Noroeste 0 -- -- 72
2018-09-28 04:00:00 18.6 6 Norte 12 Noroeste 0 -- -- 72
2018-09-28 03:00:00 19.1 8 Norte 15 Norte 0 -- -- 70
2018-09-28 02:00:00 19.1 8 Norte 13 Norte 0 -- -- 67
2018-09-28 01:00:00 20.3 6 Norte 10 Noroeste 0 -- -- 63
2018-09-28 00:00:00 20.3 8 Noroeste 15 Noroeste 0 -- -- 62
2018-09-27 23:00:00 21 8 Norte 16 Noroeste 0 -- -- 59
2018-09-27 22:00:00 22.3 6 Noroeste 18 Norte 0 -- -- 55
2018-09-27 21:00:00 23.5 4 Norte 14 Norte 0 -- -- 48
2018-09-27 20:00:00 26.8 4 Nordeste 11 Este 0 -- -- 36
2018-09-27 19:00:00 28.4 4 Nordeste 12 Este 0 -- -- 34
2018-09-27 18:00:00 28.7 4 Norte 17 Sudeste 0 -- -- 33
2018-09-27 17:00:00 30.1 4 Este 26 Sudeste 0 -- -- 32
2018-09-27 16:00:00 28.9 8 Sur 21 Sudoeste 0 -- -- 34
2018-09-27 15:00:00 29 9 Sur 21 Nordeste 0 -- -- 36
2018-09-27 14:00:00 27.9 11 Sudeste 28 Sudeste 0 -- -- 37
2018-09-27 13:00:00 27.7 13 Sudeste 31 Este 0 -- -- 40
2018-09-27 12:00:00 25.8 6 Nordeste 23 Sudeste 0 -- -- 46
2018-09-27 11:00:00 24.5 12 Sudeste 29 Sudeste 0 -- -- 48
2018-09-27 10:00:00 22.8 15 Sudeste 27 Sudeste 0 -- -- 54
2018-09-27 09:00:00 20.1 7 Este 15 Sudeste 0 -- -- 62
2018-09-27 08:00:00 19.6 9 Este 13 Sudeste 0 -- -- 62
2018-09-27 07:00:00 19.8 9 Este 15 Sudeste 0 -- -- 60
2018-09-27 06:00:00 19.1 8 Sudeste 13 Este 0 -- -- 63
2018-09-27 05:00:00 19.9 0 Calma 7 Norte 0 -- -- 58
2018-09-27 04:00:00 21.6 5 Este 19 Nordeste 0 -- -- 54
2018-09-27 03:00:00 21.6 7 Nordeste 28 Sudeste 0 -- -- 53
2018-09-27 02:00:00 22.3 12 Sudeste 31 Este 0 -- -- 53
2018-09-27 01:00:00 22.5 13 Sudeste 37 Sudeste 0 -- -- 53
2018-09-27 00:00:00 22.6 6 Sudeste 16 Sudeste 0 -- -- 58
2018-09-26 23:00:00 21.6 5 Este 8 Este 0 -- -- 65
2018-09-26 22:00:00 22.1 3 Nordeste 12 Oeste 0 -- -- 62
2018-09-26 21:00:00 23.1 5 Noroeste 21 Noroeste 0 -- -- 57
2018-09-26 20:00:00 23.3 4 Noroeste 17 Noroeste 0 -- -- 54
2018-09-26 19:00:00 25.6 5 Nordeste 15 Oeste 0 -- -- 48
2018-09-26 18:00:00 25.8 8 Noroeste 15 Noroeste 0 -- -- 48
2018-09-26 17:00:00 28.2 9 Sudeste 19 Sudeste 0 -- -- 36
2018-09-26 16:00:00 29.4 4 Nordeste 20 Sudeste 0 -- -- 37
2018-09-26 15:00:00 29.9 3 Sudoeste 13 Sudeste 0 -- -- 38
2018-09-26 14:00:00 28.1 6 Sudeste 20 Sudeste 0 -- -- 40
2018-09-26 13:00:00 29.7 12 Sudeste 23 Sur 0 -- -- 39
2018-09-26 12:00:00 27.2 13 Sudeste 22 Sur 0 -- -- 46
2018-09-26 11:00:00 24.2 4 Noroeste 12 Sudeste 0 -- -- 56
2018-09-26 10:00:00 22.5 3 Noroeste 6 Noroeste 0 -- -- 59
2018-09-26 09:00:00 21 4 Nordeste 5 Nordeste 0 -- -- 62
2018-09-26 08:00:00 20.8 2 Norte 8 Norte 0 -- -- 62
2018-09-26 07:00:00 20.9 3 Nordeste 7 Norte 0 -- -- 62
2018-09-26 06:00:00 21.1 0 Calma 7 Noroeste 0 -- -- 62
2018-09-26 05:00:00 21 2 Norte 13 Noroeste 0 -- -- 61
2018-09-26 04:00:00 21.1 4 Norte 20 Sudeste 0 -- -- 59
2018-09-26 03:00:00 21.2 3 Norte 15 Norte 0 -- -- 59
2018-09-26 02:00:00 21.7 3 Norte 13 Noroeste 0 -- -- 57
2018-09-26 01:00:00 21.7 9 Noroeste 14 Noroeste 0 -- -- 57
2018-09-26 00:00:00 22.5 6 Norte 19 Noroeste 0 -- -- 54
2018-09-25 23:00:00 23.1 8 Norte 19 Noroeste 0 -- -- 53
2018-09-25 22:00:00 23.7 9 Noroeste 18 Noroeste 0 -- -- 48
2018-09-25 21:00:00 25.2 9 Noroeste 20 Oeste 0 -- -- 41
2018-09-25 20:00:00 27.2 10 Oeste 25 Oeste 0 -- -- 35
2018-09-25 19:00:00 29.7 15 Oeste 26 Oeste 0 -- -- 32
2018-09-25 18:00:00 30.7 17 Oeste 24 Oeste 0 -- -- 31
2018-09-25 17:00:00 31.5 15 Oeste 25 Oeste 0 -- -- 29
2018-09-25 16:00:00 32 12 Noroeste 24 Oeste 0 -- -- 28
2018-09-25 15:00:00 31.8 12 Noroeste 23 Noroeste 0 -- -- 28
2018-09-25 14:00:00 30.9 8 Noroeste 20 Oeste 0 -- -- 28
2018-09-25 13:00:00 30.7 5 Oeste 13 Noroeste 0 -- -- 29
2018-09-25 12:00:00 29.4 2 Sudoeste 8 Norte 0 -- -- 31
2018-09-25 11:00:00 28.8 4 Este 10 Este 0 -- -- 31
2018-09-25 10:00:00 26.5 6 Este 19 Este 0 -- -- 33
2018-09-25 09:00:00 23.5 12 Este 21 Este 0 -- -- 35
2018-09-25 08:00:00 23 16 Este 21 Este 0 -- -- 35
2018-09-25 07:00:00 22.2 6 Este 14 Este 0 -- -- 36
2018-09-25 06:00:00 22.9 11 Este 15 Este 0 -- -- 35
2018-09-25 05:00:00 23.8 4 Este 9 Este 0 -- -- 33
2018-09-25 04:00:00 24.6 0 Calma 4 Norte 0 -- -- 32
2018-09-25 03:00:00 24.4 0 Calma 13 Norte 0 -- -- 32
2018-09-25 02:00:00 25.3 3 Norte 10 Noroeste 0 -- -- 32
2018-09-25 01:00:00 25 6 Norte 11 Norte 0 -- -- 32
2018-09-25 00:00:00 25.1 8 Norte 12 Noroeste 0 -- -- 31
2018-09-24 23:00:00 25.3 4 Norte 13 Noroeste 0 -- -- 31
2018-09-24 22:00:00 27 8 Noroeste 19 Noroeste 0 -- -- 29
2018-09-24 21:00:00 27.9 13 Noroeste 21 Noroeste 0 -- -- 28
2018-09-24 20:00:00 30.5 10 Noroeste 16 Oeste 0 -- -- 26
2018-09-24 19:00:00 33.5 9 Noroeste 16 Noroeste 0 -- -- 23
2018-09-24 18:00:00 35.2 4 Noroeste 16 Norte 0 -- -- 23
2018-09-24 17:00:00 34.8 5 Norte 18 Norte 0 -- -- 23
2018-09-24 16:00:00 34.8 4 Norte 18 Nordeste 0 -- -- 23
2018-09-24 15:00:00 34.2 4 Nordeste 21 Nordeste 0 -- -- 25
2018-09-24 14:00:00 32.7 7 Nordeste 15 Norte 0 -- -- 25
2018-09-24 13:00:00 32.5 2 Este 15 Sudeste 0 -- -- 26
2018-09-24 12:00:00 30.1 8 Sudeste 20 Sudeste 0 -- -- 28
2018-09-24 11:00:00 28.3 11 Este 21 Este 0 -- -- 30
2018-09-24 10:00:00 26.4 9 Este 19 Este 0 -- -- 32
2018-09-24 09:00:00 22.9 3 Este 14 Nordeste 0 -- -- 35
2018-09-24 08:00:00 22.7 3 Este 11 Este 0 -- -- 34
2018-09-24 07:00:00 24.8 10 Este 13 Este 0 -- -- 32
2018-09-24 06:00:00 24.2 2 Sudeste 7 Sudeste 0 -- -- 32
2018-09-24 05:00:00 24.9 2 Este 7 Este 0 -- -- 31
2018-09-24 04:00:00 25.5 0 Calma 8 Este 0 -- -- 30
2018-09-24 03:00:00 26.3 3 Este 8 Norte 0 -- -- 30
2018-09-24 02:00:00 25 3 Norte 12 Este 0 -- -- 30
2018-09-24 01:00:00 25.7 6 Norte 10 Norte 0 -- -- 28
2018-09-24 00:00:00 26 7 Norte 11 Norte 0 -- -- 28
2018-09-23 23:00:00 26.3 8 Norte 13 Norte 0 -- -- 28
2018-09-23 22:00:00 27.3 8 Noroeste 19 Noroeste 0 -- -- 27
2018-09-23 21:00:00 28 5 Norte 17 Noroeste 0 -- -- 27
2018-09-23 20:00:00 32 3 Norte 8 Norte 0 -- -- 25
2018-09-23 19:00:00 34 5 Nordeste 13 Nordeste 0 -- -- 23
2018-09-23 18:00:00 35 6 Nordeste 22 Este 0 -- -- 24
2018-09-23 17:00:00 34.9 9 Nordeste 22 Nordeste 0 -- -- 24
2018-09-23 16:00:00 34.6 5 Nordeste 26 Este 0 -- -- 25
2018-09-23 15:00:00 33.6 6 Nordeste 26 Nordeste 0 -- -- 26
2018-09-23 14:00:00 32.6 6 Nordeste 17 Nordeste 0 -- -- 28
2018-09-23 13:00:00 31.4 7 Nordeste 18 Este 0 -- -- 28
2018-09-23 12:00:00 29.8 5 Sudeste 16 Sudeste 0 -- -- 32
2018-09-23 11:00:00 27.7 11 Este 18 Este 0 -- -- 35
2018-09-23 10:00:00 25.6 14 Este 19 Este 0 -- -- 38
2018-09-23 09:00:00 22.8 14 Este 18 Este 0 -- -- 42
2018-09-23 08:00:00 22.1 15 Este 18 Este 0 -- -- 43
2018-09-23 07:00:00 22.4 14 Este 20 Este 0 -- -- 43
2018-09-23 06:00:00 22.7 9 Este 17 Este 0 -- -- 41
2018-09-23 05:00:00 22.9 12 Este 17 Este 0 -- -- 41
2018-09-23 04:00:00 23.3 0 Calma 5 Noroeste 0 -- -- 40
2018-09-23 03:00:00 25.6 0 Calma 10 Noroeste 0 -- -- 36
2018-09-23 02:00:00 25.1 3 Norte 9 Noroeste 0 -- -- 38
2018-09-23 01:00:00 24.3 6 Noroeste 10 Noroeste 0 -- -- 39
2018-09-23 00:00:00 25 0 Calma 15 Norte 0 -- -- 38
2018-09-22 23:00:00 25.3 0 Calma 14 Noroeste 0 -- -- 38
2018-09-22 22:00:00 26.2 9 Noroeste 20 Noroeste 0 -- -- 36
2018-09-22 21:00:00 26.9 8 Norte 20 Oeste 0 -- -- 35
2018-09-22 20:00:00 29.4 9 Noroeste 19 Noroeste 0 -- -- 32
2018-09-22 19:00:00 34.2 3 Nordeste 19 Sudeste 0 -- -- 24
2018-09-22 18:00:00 34.5 10 Sudeste 20 Nordeste 0 -- -- 24
2018-09-22 17:00:00 35 7 Nordeste 22 Nordeste 0 -- -- 24
2018-09-22 16:00:00 34.2 6 Sudeste 27 Sudeste 0 -- -- 25
2018-09-22 15:00:00 33.8 8 Este 29 Nordeste 0 -- -- 26
2018-09-22 14:00:00 32.8 9 Nordeste 23 Nordeste 0 -- -- 28
2018-09-22 13:00:00 31.9 9 Nordeste 16 Nordeste 0 -- -- 29
2018-09-22 12:00:00 30.3 6 Nordeste 15 Nordeste 0 -- -- 31
2018-09-22 11:00:00 29 8 Sudeste 18 Sudeste 0 -- -- 32
2018-09-22 10:00:00 27.4 6 Sudeste 12 Sudeste 0 -- -- 34
2018-09-22 09:00:00 23.8 10 Este 13 Este 0 -- -- 37
2018-09-22 08:00:00 24 3 Este 6 Este 0 -- -- 36
2018-09-22 07:00:00 25.4 2 Nordeste 5 Este 0 -- -- 34
2018-09-22 06:00:00 25.6 0 Calma 4 Nordeste 0 -- -- 34
2018-09-22 05:00:00 24.4 3 Norte 6 Norte 0 -- -- 37
2018-09-22 04:00:00 25.6 0 Calma 5 Norte 0 -- -- 34
2018-09-22 03:00:00 24.3 5 Norte 11 Norte 0 -- -- 37
2018-09-22 02:00:00 24.3 8 Norte 11 Norte 0 -- -- 38
2018-09-22 01:00:00 24.8 6 Norte 11 Noroeste 0 -- -- 37
2018-09-22 00:00:00 25.9 4 Noroeste 12 Noroeste 0 -- -- 37
2018-09-21 23:00:00 25.9 5 Noroeste 13 Noroeste 0 -- -- 37
2018-09-21 22:00:00 26.5 6 Noroeste 11 Noroeste 0 -- -- 37
2018-09-21 21:00:00 27.4 0 Calma -- -- 0 -- -- 34
2018-09-21 20:00:00 29.2 0 Calma 4 Oeste 0 -- -- 33
2018-09-21 19:00:00 29.2 3 Noroeste 14 Oeste 0 -- -- 33
2018-09-21 18:00:00 30.4 7 Oeste 18 Noroeste 0 -- -- 31
2018-09-21 17:00:00 32.7 2 Nordeste 17 Norte 0 -- -- 29
2018-09-21 16:00:00 31.8 5 Norte 18 Sudeste 0 -- -- 31
2018-09-21 15:00:00 31.5 0 Calma 18 Nordeste 0 -- -- 32
2018-09-21 14:00:00 30.7 6 Nordeste 14 Nordeste 0 -- -- 35
2018-09-21 13:00:00 29.2 5 Este 17 Sudeste 0 -- -- 39
2018-09-21 12:00:00 27.9 3 Nordeste 13 Sudeste 0 -- -- 44
2018-09-21 11:00:00 25.6 4 Noroeste 6 Noroeste 0 -- -- 50
2018-09-21 10:00:00 23.8 0 Calma 5 Sudeste 0 -- -- 55
2018-09-21 09:00:00 22.3 3 Nordeste 6 Norte 0 -- -- 57
2018-09-21 08:00:00 21.8 2 Norte 5 Nordeste 0 -- -- 60
2018-09-21 07:00:00 19.9 3 Norte 12 Norte 0 -- -- 65
2018-09-21 06:00:00 20.4 6 Noroeste 13 Noroeste 0 -- -- 63
2018-09-21 05:00:00 21.6 5 Noroeste 9 Norte 0 -- -- 59
2018-09-21 04:00:00 21 7 Norte 11 Norte 0 -- -- 60
2018-09-21 03:00:00 21.2 7 Noroeste 12 Noroeste 0 -- -- 59
2018-09-21 02:00:00 22.7 5 Noroeste 18 Oeste 0 -- -- 53
2018-09-21 01:00:00 22.6 8 Noroeste 24 Norte 0 -- -- 50
2018-09-21 00:00:00 24.3 4 Noroeste 15 Oeste 0 -- -- 44
2018-09-20 23:00:00 24.4 8 Noroeste 14 Noroeste 0 -- -- 46
2018-09-20 22:00:00 24.8 4 Noroeste 13 Sudoeste 0 -- -- 42
2018-09-20 21:00:00 25.7 6 Oeste 19 Oeste 0 -- -- 38
2018-09-20 20:00:00 27.4 11 Oeste 21 Oeste 0 -- -- 35
2018-09-20 19:00:00 29.4 14 Oeste 26 Noroeste 0 -- -- 34
2018-09-20 18:00:00 29.3 14 Oeste 25 Oeste 0 -- -- 35
2018-09-20 17:00:00 30.2 7 Noroeste 18 Oeste 0 -- -- 33
2018-09-20 16:00:00 29.7 3 Sudoeste 17 Oeste 0 -- -- 33
2018-09-20 15:00:00 28.8 6 Oeste 19 Oeste 0 -- -- 36
2018-09-20 14:00:00 29.2 7 Oeste 17 Oeste 0 -- -- 39
2018-09-20 13:00:00 27.7 6 Oeste 14 Noroeste 0 -- -- 43
2018-09-20 12:00:00 26.9 4 Oeste 9 Oeste 0 -- -- 45
2018-09-20 11:00:00 24.9 4 Noroeste 8 Noroeste 0 -- -- 49
2018-09-20 10:00:00 23.6 3 Sur 14 Sudeste 0 -- -- 50
2018-09-20 09:00:00 21.7 9 Sudeste 12 Sudeste 0 -- -- 53
2018-09-20 08:00:00 21.6 4 Nordeste 9 Este 0 -- -- 52
2018-09-20 07:00:00 22 4 Nordeste 5 Nordeste 0 -- -- 50
2018-09-20 06:00:00 21.3 0 Calma 8 Norte 0 -- -- 53
2018-09-20 05:00:00 20.9 7 Este 10 Este 0 -- -- 53
2018-09-20 04:00:00 21.2 8 Este 10 Este 0 -- -- 52
2018-09-20 03:00:00 22.3 2 Nordeste 13 Norte 0 -- -- 48
2018-09-20 02:00:00 22.3 8 Norte 14 Norte 0 -- -- 51
2018-09-20 01:00:00 22.8 7 Norte 12 Noroeste 0 -- -- 50
2018-09-20 00:00:00 24.7 4 Noroeste 11 Noroeste 0 -- -- 44